sensor_id;sensor_type;location;lat;lon;timestamp;P1;durP1;ratioP1;P2;durP2;ratioP2
7989;SDS011;4040;42.848;23.034;2023-06-10T00:00:42;4.63;;;3.97;;
7989;SDS011;4040;42.848;23.034;2023-06-10T00:03:09;5.00;;;4.45;;
7989;SDS011;4040;42.848;23.034;2023-06-10T00:05:39;5.95;;;4.30;;
7989;SDS011;4040;42.848;23.034;2023-06-10T00:08:06;6.80;;;4.10;;
7989;SDS011;4040;42.848;23.034;2023-06-10T00:10:34;7.55;;;4.63;;
7989;SDS011;4040;42.848;23.034;2023-06-10T00:13:01;6.28;;;4.90;;
7989;SDS011;4040;42.848;23.034;2023-06-10T00:15:29;5.45;;;4.40;;
7989;SDS011;4040;42.848;23.034;2023-06-10T00:17:57;4.90;;;4.40;;
7989;SDS011;4040;42.848;23.034;2023-06-10T00:20:25;5.55;;;4.55;;
7989;SDS011;4040;42.848;23.034;2023-06-10T00:22:54;8.00;;;4.65;;
7989;SDS011;4040;42.848;23.034;2023-06-10T00:25:22;5.70;;;4.40;;
7989;SDS011;4040;42.848;23.034;2023-06-10T00:27:51;5.07;;;4.35;;
7989;SDS011;4040;42.848;23.034;2023-06-10T00:30:18;4.60;;;4.10;;
7989;SDS011;4040;42.848;23.034;2023-06-10T00:32:45;6.68;;;4.93;;
7989;SDS011;4040;42.848;23.034;2023-06-10T00:35:13;5.82;;;4.25;;
7989;SDS011;4040;42.848;23.034;2023-06-10T00:37:40;6.97;;;4.88;;
7989;SDS011;4040;42.848;23.034;2023-06-10T00:40:09;5.28;;;4.68;;
7989;SDS011;4040;42.848;23.034;2023-06-10T00:42:37;5.75;;;4.80;;
7989;SDS011;4040;42.848;23.034;2023-06-10T00:45:07;5.15;;;4.45;;
7989;SDS011;4040;42.848;23.034;2023-06-10T00:47:34;7.75;;;5.07;;
7989;SDS011;4040;42.848;23.034;2023-06-10T00:50:02;6.05;;;4.75;;
7989;SDS011;4040;42.848;23.034;2023-06-10T00:52:30;5.75;;;4.82;;
7989;SDS011;4040;42.848;23.034;2023-06-10T00:54:58;5.20;;;4.40;;
7989;SDS011;4040;42.848;23.034;2023-06-10T00:57:30;5.68;;;4.90;;
7989;SDS011;4040;42.848;23.034;2023-06-10T00:59:58;6.25;;;5.13;;
7989;SDS011;4040;42.848;23.034;2023-06-10T01:02:25;7.10;;;4.72;;
7989;SDS011;4040;42.848;23.034;2023-06-10T01:04:54;6.82;;;5.15;;
7989;SDS011;4040;42.848;23.034;2023-06-10T01:07:23;7.53;;;4.53;;
7989;SDS011;4040;42.848;23.034;2023-06-10T01:09:54;6.10;;;4.88;;
7989;SDS011;4040;42.848;23.034;2023-06-10T01:12:30;5.95;;;5.03;;
7989;SDS011;4040;42.848;23.034;2023-06-10T01:15:01;6.90;;;5.28;;
7989;SDS011;4040;42.848;23.034;2023-06-10T01:17:29;7.10;;;5.35;;
7989;SDS011;4040;42.848;23.034;2023-06-10T01:19:57;5.00;;;4.35;;
7989;SDS011;4040;42.848;23.034;2023-06-10T01:22:26;6.00;;;4.45;;
7989;SDS011;4040;42.848;23.034;2023-06-10T01:24:57;4.63;;;4.22;;
7989;SDS011;4040;42.848;23.034;2023-06-10T01:27:26;5.35;;;4.10;;
7989;SDS011;4040;42.848;23.034;2023-06-10T01:29:59;4.43;;;3.88;;
7989;SDS011;4040;42.848;23.034;2023-06-10T01:32:32;5.65;;;4.50;;
7989;SDS011;4040;42.848;23.034;2023-06-10T01:35:03;4.60;;;4.10;;
7989;SDS011;4040;42.848;23.034;2023-06-10T01:37:36;6.38;;;4.53;;
7989;SDS011;4040;42.848;23.034;2023-06-10T01:40:05;5.50;;;4.55;;
7989;SDS011;4040;42.848;23.034;2023-06-10T01:42:33;5.05;;;3.97;;
7989;SDS011;4040;42.848;23.034;2023-06-10T01:45:01;5.88;;;4.57;;
7989;SDS011;4040;42.848;23.034;2023-06-10T01:47:28;6.47;;;4.88;;
7989;SDS011;4040;42.848;23.034;2023-06-10T01:49:56;5.45;;;4.38;;
7989;SDS011;4040;42.848;23.034;2023-06-10T01:52:24;9.77;;;4.43;;
7989;SDS011;4040;42.848;23.034;2023-06-10T01:54:53;4.55;;;4.10;;
7989;SDS011;4040;42.848;23.034;2023-06-10T01:57:20;5.97;;;4.57;;
7989;SDS011;4040;42.848;23.034;2023-06-10T01:59:48;4.93;;;4.38;;
7989;SDS011;4040;42.848;23.034;2023-06-10T02:02:15;5.25;;;4.75;;
7989;SDS011;4040;42.848;23.034;2023-06-10T02:04:42;5.30;;;4.80;;
7989;SDS011;4040;42.848;23.034;2023-06-10T02:07:09;6.47;;;5.03;;
7989;SDS011;4040;42.848;23.034;2023-06-10T02:09:37;5.00;;;4.47;;
7989;SDS011;4040;42.848;23.034;2023-06-10T02:12:06;5.60;;;4.78;;
7989;SDS011;4040;42.848;23.034;2023-06-10T02:14:34;5.85;;;4.95;;
7989;SDS011;4040;42.848;23.034;2023-06-10T02:17:01;6.18;;;5.25;;
7989;SDS011;4040;42.848;23.034;2023-06-10T02:19:29;5.40;;;4.53;;
7989;SDS011;4040;42.848;23.034;2023-06-10T02:21:57;6.22;;;4.88;;
7989;SDS011;4040;42.848;23.034;2023-06-10T02:24:25;5.38;;;4.35;;
7989;SDS011;4040;42.848;23.034;2023-06-10T02:26:52;6.05;;;4.65;;
7989;SDS011;4040;42.848;23.034;2023-06-10T02:29:22;6.28;;;5.38;;
7989;SDS011;4040;42.848;23.034;2023-06-10T02:31:49;5.22;;;4.68;;
7989;SDS011;4040;42.848;23.034;2023-06-10T02:34:18;7.45;;;4.55;;
7989;SDS011;4040;42.848;23.034;2023-06-10T02:36:46;7.18;;;5.10;;
7989;SDS011;4040;42.848;23.034;2023-06-10T02:39:14;5.22;;;4.72;;
7989;SDS011;4040;42.848;23.034;2023-06-10T02:41:42;6.43;;;4.85;;
7989;SDS011;4040;42.848;23.034;2023-06-10T02:44:09;7.03;;;4.68;;
7989;SDS011;4040;42.848;23.034;2023-06-10T02:46:38;4.78;;;4.22;;
7989;SDS011;4040;42.848;23.034;2023-06-10T02:49:05;7.28;;;4.40;;
7989;SDS011;4040;42.848;23.034;2023-06-10T02:51:33;6.28;;;4.43;;
7989;SDS011;4040;42.848;23.034;2023-06-10T02:54:01;8.20;;;4.60;;
7989;SDS011;4040;42.848;23.034;2023-06-10T02:56:28;5.18;;;4.20;;
7989;SDS011;4040;42.848;23.034;2023-06-10T02:58:56;5.57;;;4.63;;
7989;SDS011;4040;42.848;23.034;2023-06-10T03:01:24;5.60;;;4.20;;
7989;SDS011;4040;42.848;23.034;2023-06-10T03:03:52;5.57;;;4.05;;
7989;SDS011;4040;42.848;23.034;2023-06-10T03:06:21;5.03;;;4.38;;
7989;SDS011;4040;42.848;23.034;2023-06-10T03:08:50;5.78;;;4.60;;
7989;SDS011;4040;42.848;23.034;2023-06-10T03:11:17;5.50;;;4.80;;
7989;SDS011;4040;42.848;23.034;2023-06-10T03:13:45;5.75;;;4.38;;
7989;SDS011;4040;42.848;23.034;2023-06-10T03:16:13;7.20;;;4.55;;
7989;SDS011;4040;42.848;23.034;2023-06-10T03:18:40;6.70;;;5.00;;
7989;SDS011;4040;42.848;23.034;2023-06-10T03:21:09;4.85;;;4.40;;
7989;SDS011;4040;42.848;23.034;2023-06-10T03:23:36;4.95;;;4.35;;
7989;SDS011;4040;42.848;23.034;2023-06-10T03:26:04;5.00;;;4.40;;
7989;SDS011;4040;42.848;23.034;2023-06-10T03:28:31;5.68;;;4.40;;
7989;SDS011;4040;42.848;23.034;2023-06-10T03:30:58;5.10;;;4.55;;
7989;SDS011;4040;42.848;23.034;2023-06-10T03:33:26;6.60;;;4.75;;
7989;SDS011;4040;42.848;23.034;2023-06-10T03:35:54;6.00;;;4.55;;
7989;SDS011;4040;42.848;23.034;2023-06-10T03:38:23;5.05;;;4.43;;
7989;SDS011;4040;42.848;23.034;2023-06-10T03:40:50;5.43;;;4.38;;
7989;SDS011;4040;42.848;23.034;2023-06-10T03:43:18;5.15;;;4.60;;
7989;SDS011;4040;42.848;23.034;2023-06-10T03:45:45;5.10;;;4.60;;
7989;SDS011;4040;42.848;23.034;2023-06-10T03:48:13;5.28;;;4.35;;
7989;SDS011;4040;42.848;23.034;2023-06-10T03:50:40;5.57;;;4.25;;
7989;SDS011;4040;42.848;23.034;2023-06-10T03:53:08;5.07;;;4.63;;
7989;SDS011;4040;42.848;23.034;2023-06-10T03:55:36;5.60;;;4.25;;
7989;SDS011;4040;42.848;23.034;2023-06-10T03:58:04;6.50;;;4.90;;
7989;SDS011;4040;42.848;23.034;2023-06-10T04:00:31;5.90;;;4.90;;
7989;SDS011;4040;42.848;23.034;2023-06-10T04:03:06;5.30;;;4.72;;
7989;SDS011;4040;42.848;23.034;2023-06-10T04:05:34;4.90;;;4.35;;
7989;SDS011;4040;42.848;23.034;2023-06-10T04:08:02;4.30;;;3.90;;
7989;SDS011;4040;42.848;23.034;2023-06-10T04:10:30;6.18;;;4.47;;
7989;SDS011;4040;42.848;23.034;2023-06-10T04:12:58;5.57;;;4.65;;
7989;SDS011;4040;42.848;23.034;2023-06-10T04:15:26;6.15;;;4.70;;
7989;SDS011;4040;42.848;23.034;2023-06-10T04:17:53;4.75;;;4.28;;
7989;SDS011;4040;42.848;23.034;2023-06-10T04:20:20;5.28;;;4.65;;
7989;SDS011;4040;42.848;23.034;2023-06-10T04:22:48;5.57;;;4.93;;
7989;SDS011;4040;42.848;23.034;2023-06-10T04:25:15;6.10;;;4.82;;
7989;SDS011;4040;42.848;23.034;2023-06-10T04:27:43;4.75;;;4.18;;
7989;SDS011;4040;42.848;23.034;2023-06-10T04:30:13;5.00;;;4.40;;
7989;SDS011;4040;42.848;23.034;2023-06-10T04:32:40;4.90;;;4.00;;
7989;SDS011;4040;42.848;23.034;2023-06-10T04:35:08;5.05;;;4.32;;
7989;SDS011;4040;42.848;23.034;2023-06-10T04:37:38;5.03;;;4.53;;
7989;SDS011;4040;42.848;23.034;2023-06-10T04:40:06;7.88;;;5.40;;
7989;SDS011;4040;42.848;23.034;2023-06-10T04:42:34;5.63;;;4.97;;
7989;SDS011;4040;42.848;23.034;2023-06-10T04:45:01;6.10;;;4.43;;
7989;SDS011;4040;42.848;23.034;2023-06-10T04:47:30;4.07;;;3.13;;
7989;SDS011;4040;42.848;23.034;2023-06-10T04:49:58;3.38;;;3.05;;
7989;SDS011;4040;42.848;23.034;2023-06-10T04:52:26;4.53;;;3.53;;
7989;SDS011;4040;42.848;23.034;2023-06-10T04:54:53;4.15;;;3.20;;
7989;SDS011;4040;42.848;23.034;2023-06-10T04:57:20;5.05;;;3.55;;
7989;SDS011;4040;42.848;23.034;2023-06-10T04:59:48;3.83;;;3.22;;
7989;SDS011;4040;42.848;23.034;2023-06-10T05:02:15;4.13;;;3.55;;
7989;SDS011;4040;42.848;23.034;2023-06-10T05:04:44;5.75;;;3.92;;
7989;SDS011;4040;42.848;23.034;2023-06-10T05:07:11;6.68;;;3.50;;
7989;SDS011;4040;42.848;23.034;2023-06-10T05:09:38;5.88;;;3.70;;
7989;SDS011;4040;42.848;23.034;2023-06-10T05:12:06;4.57;;;3.90;;
7989;SDS011;4040;42.848;23.034;2023-06-10T05:14:34;4.13;;;3.10;;
7989;SDS011;4040;42.848;23.034;2023-06-10T05:17:01;4.18;;;3.60;;
7989;SDS011;4040;42.848;23.034;2023-06-10T05:19:30;4.10;;;3.67;;
7989;SDS011;4040;42.848;23.034;2023-06-10T05:21:59;5.63;;;3.10;;
7989;SDS011;4040;42.848;23.034;2023-06-10T05:24:26;5.55;;;3.03;;
7989;SDS011;4040;42.848;23.034;2023-06-10T05:26:53;6.28;;;3.08;;
7989;SDS011;4040;42.848;23.034;2023-06-10T05:29:21;3.38;;;3.08;;
7989;SDS011;4040;42.848;23.034;2023-06-10T05:31:48;5.40;;;3.70;;
7989;SDS011;4040;42.848;23.034;2023-06-10T05:34:15;7.65;;;3.38;;
7989;SDS011;4040;42.848;23.034;2023-06-10T05:36:42;3.95;;;3.28;;
7989;SDS011;4040;42.848;23.034;2023-06-10T05:39:13;3.92;;;3.50;;
7989;SDS011;4040;42.848;23.034;2023-06-10T05:41:40;4.00;;;3.38;;
7989;SDS011;4040;42.848;23.034;2023-06-10T05:44:08;3.22;;;2.92;;
7989;SDS011;4040;42.848;23.034;2023-06-10T05:46:35;3.33;;;3.03;;
7989;SDS011;4040;42.848;23.034;2023-06-10T05:49:02;5.88;;;3.67;;
7989;SDS011;4040;42.848;23.034;2023-06-10T05:51:29;7.00;;;3.33;;
7989;SDS011;4040;42.848;23.034;2023-06-10T05:53:56;5.07;;;3.05;;
7989;SDS011;4040;42.848;23.034;2023-06-10T05:56:25;4.65;;;3.65;;
7989;SDS011;4040;42.848;23.034;2023-06-10T05:58:53;3.65;;;3.30;;
7989;SDS011;4040;42.848;23.034;2023-06-10T06:01:20;3.25;;;2.92;;
7989;SDS011;4040;42.848;23.034;2023-06-10T06:03:47;3.92;;;3.50;;
7989;SDS011;4040;42.848;23.034;2023-06-10T06:06:15;4.40;;;3.25;;
7989;SDS011;4040;42.848;23.034;2023-06-10T06:08:44;7.03;;;4.00;;
7989;SDS011;4040;42.848;23.034;2023-06-10T06:11:14;4.80;;;3.40;;
7989;SDS011;4040;42.848;23.034;2023-06-10T06:13:43;4.13;;;3.38;;
7989;SDS011;4040;42.848;23.034;2023-06-10T06:16:10;3.13;;;2.83;;
7989;SDS011;4040;42.848;23.034;2023-06-10T06:18:38;4.10;;;3.00;;
7989;SDS011;4040;42.848;23.034;2023-06-10T06:21:05;4.50;;;3.08;;
7989;SDS011;4040;42.848;23.034;2023-06-10T06:23:32;4.05;;;3.58;;
7989;SDS011;4040;42.848;23.034;2023-06-10T06:25:59;3.55;;;3.03;;
7989;SDS011;4040;42.848;23.034;2023-06-10T06:28:27;3.50;;;3.13;;
7989;SDS011;4040;42.848;23.034;2023-06-10T06:30:56;4.75;;;3.70;;
7989;SDS011;4040;42.848;23.034;2023-06-10T06:33:23;3.83;;;3.20;;
7989;SDS011;4040;42.848;23.034;2023-06-10T06:35:51;3.30;;;3.00;;
7989;SDS011;4040;42.848;23.034;2023-06-10T06:38:18;3.00;;;2.67;;
7989;SDS011;4040;42.848;23.034;2023-06-10T06:40:46;3.78;;;2.97;;
7989;SDS011;4040;42.848;23.034;2023-06-10T06:43:13;3.08;;;2.78;;
7989;SDS011;4040;42.848;23.034;2023-06-10T06:45:40;3.70;;;2.95;;
7989;SDS011;4040;42.848;23.034;2023-06-10T06:48:09;3.63;;;3.25;;
7989;SDS011;4040;42.848;23.034;2023-06-10T06:50:36;4.65;;;4.03;;
7989;SDS011;4040;42.848;23.034;2023-06-10T06:53:03;6.30;;;3.97;;
7989;SDS011;4040;42.848;23.034;2023-06-10T06:55:31;3.97;;;3.25;;
7989;SDS011;4040;42.848;23.034;2023-06-10T06:57:58;4.68;;;3.70;;
7989;SDS011;4040;42.848;23.034;2023-06-10T07:00:28;4.90;;;2.95;;
7989;SDS011;4040;42.848;23.034;2023-06-10T07:02:55;3.10;;;2.80;;
7989;SDS011;4040;42.848;23.034;2023-06-10T07:05:23;4.10;;;2.83;;
7989;SDS011;4040;42.848;23.034;2023-06-10T07:07:52;3.17;;;2.88;;
7989;SDS011;4040;42.848;23.034;2023-06-10T07:10:20;5.10;;;2.70;;
7989;SDS011;4040;42.848;23.034;2023-06-10T07:12:48;4.38;;;2.40;;
7989;SDS011;4040;42.848;23.034;2023-06-10T07:15:15;3.05;;;2.60;;
7989;SDS011;4040;42.848;23.034;2023-06-10T07:17:42;3.28;;;2.67;;
7989;SDS011;4040;42.848;23.034;2023-06-10T07:20:10;6.85;;;2.60;;
7989;SDS011;4040;42.848;23.034;2023-06-10T07:22:40;3.85;;;2.50;;
7989;SDS011;4040;42.848;23.034;2023-06-10T07:25:08;2.90;;;2.63;;
7989;SDS011;4040;42.848;23.034;2023-06-10T07:27:36;3.15;;;2.47;;
7989;SDS011;4040;42.848;23.034;2023-06-10T07:30:05;4.32;;;2.47;;
7989;SDS011;4040;42.848;23.034;2023-06-10T07:32:33;3.47;;;2.45;;
7989;SDS011;4040;42.848;23.034;2023-06-10T07:35:01;5.65;;;2.72;;
7989;SDS011;4040;42.848;23.034;2023-06-10T07:37:28;3.15;;;2.60;;
7989;SDS011;4040;42.848;23.034;2023-06-10T07:39:57;3.20;;;2.53;;
7989;SDS011;4040;42.848;23.034;2023-06-10T07:42:24;3.78;;;2.60;;
7989;SDS011;4040;42.848;23.034;2023-06-10T07:44:51;4.68;;;2.30;;
7989;SDS011;4040;42.848;23.034;2023-06-10T07:47:18;2.50;;;2.22;;
7989;SDS011;4040;42.848;23.034;2023-06-10T07:49:46;3.05;;;2.58;;
7989;SDS011;4040;42.848;23.034;2023-06-10T07:52:13;2.58;;;2.30;;
7989;SDS011;4040;42.848;23.034;2023-06-10T07:54:40;2.92;;;2.15;;
7989;SDS011;4040;42.848;23.034;2023-06-10T07:57:08;2.28;;;2.08;;
7989;SDS011;4040;42.848;23.034;2023-06-10T07:59:36;2.70;;;2.22;;
7989;SDS011;4040;42.848;23.034;2023-06-10T08:02:03;3.10;;;2.30;;
7989;SDS011;4040;42.848;23.034;2023-06-10T08:04:30;2.67;;;2.22;;
7989;SDS011;4040;42.848;23.034;2023-06-10T08:07:00;2.38;;;2.17;;
7989;SDS011;4040;42.848;23.034;2023-06-10T08:09:27;2.58;;;2.20;;
7989;SDS011;4040;42.848;23.034;2023-06-10T08:11:55;2.45;;;1.88;;
7989;SDS011;4040;42.848;23.034;2023-06-10T08:14:23;2.85;;;2.13;;
7989;SDS011;4040;42.848;23.034;2023-06-10T08:16:50;2.22;;;1.73;;
7989;SDS011;4040;42.848;23.034;2023-06-10T08:19:18;2.85;;;2.10;;
7989;SDS011;4040;42.848;23.034;2023-06-10T08:21:45;2.42;;;2.08;;
7989;SDS011;4040;42.848;23.034;2023-06-10T08:24:12;1.90;;;1.70;;
7989;SDS011;4040;42.848;23.034;2023-06-10T08:26:41;3.28;;;2.17;;
7989;SDS011;4040;42.848;23.034;2023-06-10T08:29:08;3.75;;;2.05;;
7989;SDS011;4040;42.848;23.034;2023-06-10T08:31:37;2.10;;;1.90;;
7989;SDS011;4040;42.848;23.034;2023-06-10T08:34:07;2.05;;;1.85;;
7989;SDS011;4040;42.848;23.034;2023-06-10T08:36:34;1.52;;;1.42;;
7989;SDS011;4040;42.848;23.034;2023-06-10T08:39:02;3.00;;;1.77;;
7989;SDS011;4040;42.848;23.034;2023-06-10T08:41:30;1.90;;;1.65;;
7989;SDS011;4040;42.848;23.034;2023-06-10T08:44:03;2.55;;;1.52;;
7989;SDS011;4040;42.848;23.034;2023-06-10T08:46:38;3.33;;;1.60;;
7989;SDS011;4040;42.848;23.034;2023-06-10T08:49:11;1.63;;;1.52;;
7989;SDS011;4040;42.848;23.034;2023-06-10T08:51:46;1.60;;;1.50;;
7989;SDS011;4040;42.848;23.034;2023-06-10T08:54:17;3.55;;;1.63;;
7989;SDS011;4040;42.848;23.034;2023-06-10T08:56:49;3.55;;;1.67;;
7989;SDS011;4040;42.848;23.034;2023-06-10T08:59:17;1.65;;;1.52;;
7989;SDS011;4040;42.848;23.034;2023-06-10T09:01:47;3.20;;;2.08;;
7989;SDS011;4040;42.848;23.034;2023-06-10T09:04:16;2.53;;;2.00;;
7989;SDS011;4040;42.848;23.034;2023-06-10T09:06:45;2.47;;;1.70;;
7989;SDS011;4040;42.848;23.034;2023-06-10T09:09:14;2.20;;;2.00;;
7989;SDS011;4040;42.848;23.034;2023-06-10T09:11:41;2.42;;;2.10;;
7989;SDS011;4040;42.848;23.034;2023-06-10T09:14:09;1.65;;;1.55;;
7989;SDS011;4040;42.848;23.034;2023-06-10T09:16:37;2.30;;;1.85;;
7989;SDS011;4040;42.848;23.034;2023-06-10T09:19:06;1.85;;;1.55;;
7989;SDS011;4040;42.848;23.034;2023-06-10T09:21:34;2.22;;;1.83;;
7989;SDS011;4040;42.848;23.034;2023-06-10T09:24:02;2.13;;;1.92;;
7989;SDS011;4040;42.848;23.034;2023-06-10T09:26:30;2.35;;;2.08;;
7989;SDS011;4040;42.848;23.034;2023-06-10T09:28:58;2.30;;;1.75;;
7989;SDS011;4040;42.848;23.034;2023-06-10T09:31:30;2.03;;;1.80;;
7989;SDS011;4040;42.848;23.034;2023-06-10T09:34:04;2.33;;;1.63;;
7989;SDS011;4040;42.848;23.034;2023-06-10T09:36:35;2.03;;;1.73;;
7989;SDS011;4040;42.848;23.034;2023-06-10T09:39:03;1.60;;;1.50;;
7989;SDS011;4040;42.848;23.034;2023-06-10T09:41:33;2.10;;;1.90;;
7989;SDS011;4040;42.848;23.034;2023-06-10T09:44:01;2.63;;;2.00;;
7989;SDS011;4040;42.848;23.034;2023-06-10T09:46:30;3.00;;;2.25;;
7989;SDS011;4040;42.848;23.034;2023-06-10T09:48:59;2.65;;;2.10;;
7989;SDS011;4040;42.848;23.034;2023-06-10T09:51:27;2.00;;;1.80;;
7989;SDS011;4040;42.848;23.034;2023-06-10T09:53:54;2.40;;;1.80;;
7989;SDS011;4040;42.848;23.034;2023-06-10T09:56:22;2.20;;;2.00;;
7989;SDS011;4040;42.848;23.034;2023-06-10T09:58:59;2.50;;;1.80;;
7989;SDS011;4040;42.848;23.034;2023-06-10T10:01:26;2.90;;;1.92;;
7989;SDS011;4040;42.848;23.034;2023-06-10T10:03:54;1.83;;;1.70;;
7989;SDS011;4040;42.848;23.034;2023-06-10T10:06:21;1.92;;;1.67;;
7989;SDS011;4040;42.848;23.034;2023-06-10T10:08:50;1.80;;;1.65;;
7989;SDS011;4040;42.848;23.034;2023-06-10T10:11:18;1.90;;;1.80;;
7989;SDS011;4040;42.848;23.034;2023-06-10T10:13:47;3.30;;;1.95;;
7989;SDS011;4040;42.848;23.034;2023-06-10T10:16:16;2.28;;;2.08;;
7989;SDS011;4040;42.848;23.034;2023-06-10T10:18:46;2.13;;;1.92;;
7989;SDS011;4040;42.848;23.034;2023-06-10T10:21:16;2.78;;;1.98;;
7989;SDS011;4040;42.848;23.034;2023-06-10T10:23:51;2.13;;;1.92;;
7989;SDS011;4040;42.848;23.034;2023-06-10T10:26:25;2.50;;;2.30;;
7989;SDS011;4040;42.848;23.034;2023-06-10T10:28:55;2.13;;;1.92;;
7989;SDS011;4040;42.848;23.034;2023-06-10T10:31:31;2.88;;;2.08;;
7989;SDS011;4040;42.848;23.034;2023-06-10T10:34:02;1.80;;;1.70;;
7989;SDS011;4040;42.848;23.034;2023-06-10T10:36:33;2.22;;;1.98;;
7989;SDS011;4040;42.848;23.034;2023-06-10T10:39:04;2.55;;;2.20;;
7989;SDS011;4040;42.848;23.034;2023-06-10T10:41:31;2.13;;;1.92;;
7989;SDS011;4040;42.848;23.034;2023-06-10T10:44:00;2.70;;;1.98;;
7989;SDS011;4040;42.848;23.034;2023-06-10T10:46:30;2.53;;;2.15;;
7989;SDS011;4040;42.848;23.034;2023-06-10T10:49:09;2.20;;;2.00;;
7989;SDS011;4040;42.848;23.034;2023-06-10T10:51:39;4.68;;;2.15;;
7989;SDS011;4040;42.848;23.034;2023-06-10T10:54:29;2.30;;;2.10;;
7989;SDS011;4040;42.848;23.034;2023-06-10T10:57:10;3.88;;;2.47;;
7989;SDS011;4040;42.848;23.034;2023-06-10T10:59:51;3.20;;;2.20;;
7989;SDS011;4040;42.848;23.034;2023-06-10T11:02:34;3.00;;;2.20;;
7989;SDS011;4040;42.848;23.034;2023-06-10T11:05:05;2.63;;;2.42;;
7989;SDS011;4040;42.848;23.034;2023-06-10T11:07:33;2.72;;;2.03;;
7989;SDS011;4040;42.848;23.034;2023-06-10T11:10:05;2.63;;;2.35;;
7989;SDS011;4040;42.848;23.034;2023-06-10T11:12:50;2.53;;;2.17;;
7989;SDS011;4040;42.848;23.034;2023-06-10T11:15:22;2.45;;;2.00;;
7989;SDS011;4040;42.848;23.034;2023-06-10T11:23:32;2.60;;;2.00;;
7989;SDS011;4040;42.848;23.034;2023-06-10T11:29:06;3.38;;;2.05;;
7989;SDS011;4040;42.848;23.034;2023-06-10T11:31:41;5.32;;;3.95;;
7989;SDS011;4040;42.848;23.034;2023-06-10T11:34:13;5.43;;;3.15;;
7989;SDS011;4040;42.848;23.034;2023-06-10T11:36:41;4.35;;;2.95;;
7989;SDS011;4040;42.848;23.034;2023-06-10T11:39:11;3.38;;;2.10;;
7989;SDS011;4040;42.848;23.034;2023-06-10T11:41:39;2.50;;;2.17;;
7989;SDS011;4040;42.848;23.034;2023-06-10T11:44:08;2.63;;;2.17;;
7989;SDS011;4040;42.848;23.034;2023-06-10T11:46:36;2.50;;;2.30;;
7989;SDS011;4040;42.848;23.034;2023-06-10T11:49:04;2.85;;;2.33;;
7989;SDS011;4040;42.848;23.034;2023-06-10T11:51:33;2.85;;;2.35;;
7989;SDS011;4040;42.848;23.034;2023-06-10T11:54:01;4.10;;;2.63;;
7989;SDS011;4040;42.848;23.034;2023-06-10T11:56:30;2.95;;;2.30;;
7989;SDS011;4040;42.848;23.034;2023-06-10T11:59:00;2.22;;;2.03;;
7989;SDS011;4040;42.848;23.034;2023-06-10T12:01:30;2.47;;;2.28;;
7989;SDS011;4040;42.848;23.034;2023-06-10T12:03:58;4.78;;;2.55;;
7989;SDS011;4040;42.848;23.034;2023-06-10T12:06:39;3.42;;;2.00;;
7989;SDS011;4040;42.848;23.034;2023-06-10T12:09:15;2.75;;;2.35;;
7989;SDS011;4040;42.848;23.034;2023-06-10T12:11:44;5.03;;;2.45;;
7989;SDS011;4040;42.848;23.034;2023-06-10T12:14:13;2.80;;;2.20;;
7989;SDS011;4040;42.848;23.034;2023-06-10T12:16:41;3.05;;;2.38;;
7989;SDS011;4040;42.848;23.034;2023-06-10T12:19:15;6.22;;;2.65;;
7989;SDS011;4040;42.848;23.034;2023-06-10T12:21:43;4.75;;;3.45;;
7989;SDS011;4040;42.848;23.034;2023-06-10T12:24:11;6.07;;;2.88;;
7989;SDS011;4040;42.848;23.034;2023-06-10T12:26:39;4.85;;;3.22;;
7989;SDS011;4040;42.848;23.034;2023-06-10T12:29:18;6.28;;;3.55;;
7989;SDS011;4040;42.848;23.034;2023-06-10T12:31:55;8.02;;;3.55;;
7989;SDS011;4040;42.848;23.034;2023-06-10T12:34:30;9.05;;;4.45;;
7989;SDS011;4040;42.848;23.034;2023-06-10T12:36:58;7.43;;;4.25;;
7989;SDS011;4040;42.848;23.034;2023-06-10T12:39:26;6.10;;;4.25;;
7989;SDS011;4040;42.848;23.034;2023-06-10T12:41:53;5.57;;;3.72;;
7989;SDS011;4040;42.848;23.034;2023-06-10T12:44:32;4.68;;;3.90;;
7989;SDS011;4040;42.848;23.034;2023-06-10T12:47:01;5.70;;;4.20;;
7989;SDS011;4040;42.848;23.034;2023-06-10T12:49:33;6.53;;;4.22;;
7989;SDS011;4040;42.848;23.034;2023-06-10T12:52:01;6.32;;;4.35;;
7989;SDS011;4040;42.848;23.034;2023-06-10T12:54:29;6.88;;;4.65;;
7989;SDS011;4040;42.848;23.034;2023-06-10T12:56:56;5.28;;;3.65;;
7989;SDS011;4040;42.848;23.034;2023-06-10T12:59:23;7.32;;;4.28;;
7989;SDS011;4040;42.848;23.034;2023-06-10T13:01:52;3.97;;;3.33;;
7989;SDS011;4040;42.848;23.034;2023-06-10T13:04:19;5.88;;;3.90;;
7989;SDS011;4040;42.848;23.034;2023-06-10T13:06:48;8.70;;;4.30;;
7989;SDS011;4040;42.848;23.034;2023-06-10T13:09:15;6.68;;;4.18;;
7989;SDS011;4040;42.848;23.034;2023-06-10T13:11:42;5.85;;;3.28;;
7989;SDS011;4040;42.848;23.034;2023-06-10T13:14:10;4.50;;;3.20;;
7989;SDS011;4040;42.848;23.034;2023-06-10T13:16:38;5.20;;;3.17;;
7989;SDS011;4040;42.848;23.034;2023-06-10T13:19:07;4.97;;;3.22;;
7989;SDS011;4040;42.848;23.034;2023-06-10T13:21:34;3.97;;;2.83;;
7989;SDS011;4040;42.848;23.034;2023-06-10T13:24:02;4.00;;;3.20;;
7989;SDS011;4040;42.848;23.034;2023-06-10T13:26:29;6.97;;;3.85;;
7989;SDS011;4040;42.848;23.034;2023-06-10T13:28:57;4.70;;;3.40;;
7989;SDS011;4040;42.848;23.034;2023-06-10T13:31:24;5.63;;;3.70;;
7989;SDS011;4040;42.848;23.034;2023-06-10T13:33:51;4.15;;;3.38;;
7989;SDS011;4040;42.848;23.034;2023-06-10T13:36:20;4.13;;;3.13;;
7989;SDS011;4040;42.848;23.034;2023-06-10T13:38:47;3.65;;;3.08;;
7989;SDS011;4040;42.848;23.034;2023-06-10T13:41:14;5.10;;;4.57;;
7989;SDS011;4040;42.848;23.034;2023-06-10T13:43:41;3.97;;;3.30;;
7989;SDS011;4040;42.848;23.034;2023-06-10T13:46:09;5.00;;;3.03;;
7989;SDS011;4040;42.848;23.034;2023-06-10T13:48:36;3.30;;;2.72;;
7989;SDS011;4040;42.848;23.034;2023-06-10T13:51:03;3.03;;;2.72;;
7989;SDS011;4040;42.848;23.034;2023-06-10T13:53:32;4.45;;;3.22;;
7989;SDS011;4040;42.848;23.034;2023-06-10T13:56:00;6.38;;;4.03;;
7989;SDS011;4040;42.848;23.034;2023-06-10T13:58:27;4.55;;;3.60;;
7989;SDS011;4040;42.848;23.034;2023-06-10T14:00:54;4.28;;;3.63;;
7989;SDS011;4040;42.848;23.034;2023-06-10T14:03:22;4.38;;;3.65;;
7989;SDS011;4040;42.848;23.034;2023-06-10T14:05:49;4.22;;;3.17;;
7989;SDS011;4040;42.848;23.034;2023-06-10T14:08:16;4.38;;;3.13;;
7989;SDS011;4040;42.848;23.034;2023-06-10T14:10:45;3.17;;;2.85;;
7989;SDS011;4040;42.848;23.034;2023-06-10T14:13:13;3.63;;;3.05;;
7989;SDS011;4040;42.848;23.034;2023-06-10T14:15:40;3.22;;;2.70;;
7989;SDS011;4040;42.848;23.034;2023-06-10T14:18:08;2.67;;;2.47;;
7989;SDS011;4040;42.848;23.034;2023-06-10T14:20:35;3.47;;;3.17;;
7989;SDS011;4040;42.848;23.034;2023-06-10T14:23:02;3.47;;;2.83;;
7989;SDS011;4040;42.848;23.034;2023-06-10T14:25:29;3.15;;;2.45;;
7989;SDS011;4040;42.848;23.034;2023-06-10T14:27:58;3.08;;;2.47;;
7989;SDS011;4040;42.848;23.034;2023-06-10T14:30:25;8.27;;;2.90;;
7989;SDS011;4040;42.848;23.034;2023-06-10T14:32:52;2.65;;;2.10;;
7989;SDS011;4040;42.848;23.034;2023-06-10T14:35:20;3.72;;;2.65;;
7989;SDS011;4040;42.848;23.034;2023-06-10T14:37:47;8.02;;;3.05;;
7989;SDS011;4040;42.848;23.034;2023-06-10T14:40:14;3.20;;;2.67;;
7989;SDS011;4040;42.848;23.034;2023-06-10T14:42:41;4.65;;;2.67;;
7989;SDS011;4040;42.848;23.034;2023-06-10T14:45:10;3.40;;;2.47;;
7989;SDS011;4040;42.848;23.034;2023-06-10T14:47:37;6.55;;;2.97;;
7989;SDS011;4040;42.848;23.034;2023-06-10T14:50:04;3.40;;;2.90;;
7989;SDS011;4040;42.848;23.034;2023-06-10T14:52:32;3.47;;;2.50;;
7989;SDS011;4040;42.848;23.034;2023-06-10T14:54:59;3.40;;;2.70;;
7989;SDS011;4040;42.848;23.034;2023-06-10T14:57:26;3.30;;;2.63;;
7989;SDS011;4040;42.848;23.034;2023-06-10T14:59:53;4.00;;;2.83;;
7989;SDS011;4040;42.848;23.034;2023-06-10T15:02:22;3.63;;;3.08;;
7989;SDS011;4040;42.848;23.034;2023-06-10T15:04:50;2.95;;;2.47;;
7989;SDS011;4040;42.848;23.034;2023-06-10T15:07:17;4.22;;;2.83;;
7989;SDS011;4040;42.848;23.034;2023-06-10T15:09:44;3.47;;;3.03;;
7989;SDS011;4040;42.848;23.034;2023-06-10T15:12:12;3.17;;;2.42;;
7989;SDS011;4040;42.848;23.034;2023-06-10T15:14:39;3.88;;;3.10;;
7989;SDS011;4040;42.848;23.034;2023-06-10T15:17:06;3.45;;;2.78;;